Time;durP1;ratioP1;P1;durP2;ratioP2;P2;SDS_P1;SDS_P2;PMS_P1;PMS_P2;Temp;Humidity;BMP_temperature;BMP_pressure;BME280_temperature;BME280_humidity;BME280_pressure;Samples;Min_cycle;Max_cycle;Signal;HPM_P1;HPM_P2
2021/06/14 00:02:05;;;;;;;4.73;3.70;;;16.50;97.20;;;;;;5065114;28;20689;-70
2021/06/14 00:04:32;;;;;;;4.50;3.40;;;16.50;96.90;;;;;;5063252;28;20818;-69
2021/06/14 00:06:57;;;;;;;3.53;3.23;;;16.40;96.90;;;;;;5066474;28;20454;-69
2021/06/14 00:09:24;;;;;;;4.67;3.40;;;16.40;97.60;;;;;;5073619;28;20892;-69
2021/06/14 00:11:51;;;;;;;3.90;3.40;;;16.40;99.00;;;;;;5076176;28;20662;-69
2021/06/14 00:14:18;;;;;;;3.97;3.67;;;16.30;99.90;;;;;;5067495;28;20445;-69
2021/06/14 00:16:44;;;;;;;3.40;3.03;;;16.30;99.90;;;;;;5060860;28;20436;-69
2021/06/14 00:19:10;;;;;;;4.63;3.50;;;16.30;99.90;;;;;;5065535;28;20460;-68
2021/06/14 00:21:37;;;;;;;4.73;3.33;;;16.20;99.90;;;;;;5065689;28;20951;-68
2021/06/14 00:24:04;;;;;;;4.30;3.90;;;16.20;99.90;;;;;;5061868;28;20174;-69
2021/06/14 00:26:30;;;;;;;4.50;3.70;;;16.20;99.90;;;;;;5066927;28;20462;-69
2021/06/14 00:28:56;;;;;;;3.60;3.30;;;16.10;99.90;;;;;;5065990;28;20829;-70
2021/06/14 00:31:22;;;;;;;4.97;4.10;;;16.10;99.90;;;;;;5054767;28;20185;-69
2021/06/14 00:33:48;;;;;;;4.13;3.83;;;16.10;99.90;;;;;;5064742;28;20756;-69
2021/06/14 00:36:13;;;;;;;5.10;3.80;;;16.00;99.90;;;;;;5058773;28;20551;-69
2021/06/14 00:38:39;;;;;;;4.73;4.33;;;16.00;99.90;;;;;;5051777;28;20535;-69
2021/06/14 00:41:06;;;;;;;3.30;3.03;;;16.00;99.90;;;;;;5066183;28;20204;-69
2021/06/14 00:43:33;;;;;;;4.27;3.90;;;15.90;99.90;;;;;;5065384;28;20457;-69
2021/06/14 00:45:59;;;;;;;5.23;3.70;;;15.90;99.90;;;;;;5050851;28;20457;-69
2021/06/14 00:48:25;;;;;;;3.90;3.60;;;15.90;99.90;;;;;;5053343;28;20424;-68
2021/06/14 00:50:54;;;;;;;4.50;3.20;;;15.80;99.90;;;;;;5059356;28;20841;-69
2021/06/14 00:53:27;;;;;;;4.63;3.67;;;15.80;99.90;;;;;;5066658;28;20940;-69
2021/06/14 00:55:53;;;;;;;3.83;3.43;;;15.80;99.90;;;;;;5061510;28;20539;-70
2021/06/14 00:58:19;;;;;;;6.13;3.97;;;15.70;99.90;;;;;;5061178;28;20444;-68
2021/06/14 01:00:45;;;;;;;4.53;3.60;;;15.70;99.90;;;;;;5065917;28;20177;-70
2021/06/14 01:03:12;;;;;;;4.20;3.63;;;15.70;99.90;;;;;;5066473;28;20426;-69
2021/06/14 01:05:48;;;;;;;3.77;3.47;;;15.70;99.90;;;;;;5065052;28;20234;-69
2021/06/14 01:08:14;;;;;;;4.13;3.83;;;15.60;99.90;;;;;;5062708;28;20469;-68
2021/06/14 01:10:41;;;;;;;4.10;3.33;;;15.60;99.90;;;;;;5065528;28;20436;-69
2021/06/14 01:13:28;;;;;;;4.30;4.00;;;15.50;99.90;;;;;;5064014;28;20185;-69
2021/06/14 01:16:04;;;;;;;6.10;4.20;;;15.50;99.90;;;;;;5068928;28;20446;-69
2021/06/14 01:18:40;;;;;;;6.40;3.73;;;15.50;99.90;;;;;;5063108;28;20439;-69
2021/06/14 01:21:15;;;;;;;4.30;3.90;;;15.40;99.90;;;;;;5067932;28;20439;-69
2021/06/14 01:24:02;;;;;;;4.43;4.13;;;15.40;99.90;;;;;;5068981;28;20419;-69
2021/06/14 01:26:36;;;;;;;3.77;3.30;;;15.40;99.90;;;;;;5056685;28;21052;-69
2021/06/14 01:29:03;;;;;;;3.50;3.20;;;15.30;99.90;;;;;;5067856;28;20426;-69
2021/06/14 01:31:32;;;;;;;4.50;3.73;;;15.30;99.90;;;;;;5068970;28;20434;-69
2021/06/14 01:33:59;;;;;;;3.90;3.60;;;15.30;99.90;;;;;;5069142;28;20503;-69
2021/06/14 01:36:33;;;;;;;4.10;3.60;;;15.30;99.90;;;;;;5062097;28;21048;-68
2021/06/14 01:39:00;;;;;;;3.70;3.40;;;15.20;99.90;;;;;;5052273;28;20471;-68
2021/06/14 01:41:28;;;;;;;3.43;3.10;;;15.20;99.90;;;;;;5059071;28;20431;-69
2021/06/14 01:43:54;;;;;;;5.40;3.80;;;15.20;99.90;;;;;;5069455;28;20416;-69
2021/06/14 01:46:27;;;;;;;4.60;4.20;;;15.20;99.90;;;;;;5061102;28;20463;-68
2021/06/14 01:48:53;;;;;;;7.33;4.17;;;15.20;99.90;;;;;;5068557;28;20456;-68
2021/06/14 01:51:26;;;;;;;5.23;4.30;;;15.10;99.90;;;;;;5062923;28;20515;-68
2021/06/14 01:54:06;;;;;;;4.30;3.90;;;15.10;99.90;;;;;;5060892;28;20516;-70
2021/06/14 01:56:42;;;;;;;4.73;4.03;;;15.10;99.90;;;;;;5064725;28;20447;-68
2021/06/14 01:59:12;;;;;;;4.97;4.43;;;15.10;99.90;;;;;;5061876;28;20463;-68
2021/06/14 02:01:40;;;;;;;4.40;4.00;;;15.10;99.90;;;;;;5069342;28;20803;-69
2021/06/14 02:04:06;;;;;;;3.70;3.40;;;15.00;99.90;;;;;;5070893;28;20452;-67
2021/06/14 02:06:35;;;;;;;5.07;3.80;;;15.00;99.90;;;;;;5070646;28;20536;-68
2021/06/14 02:09:06;;;;;;;4.10;3.70;;;15.00;99.90;;;;;;5062252;28;20198;-68
2021/06/14 02:11:33;;;;;;;3.97;3.67;;;14.90;99.90;;;;;;5067836;28;21015;-69
2021/06/14 02:13:59;;;;;;;5.23;3.77;;;14.90;99.90;;;;;;5060880;28;20537;-68
2021/06/14 02:16:27;;;;;;;4.60;4.20;;;14.90;99.90;;;;;;5053938;28;20514;-68
2021/06/14 02:18:52;;;;;;;4.70;4.20;;;14.90;99.90;;;;;;5067559;28;20514;-67
2021/06/14 02:21:20;;;;;;;5.03;4.10;;;14.90;99.90;;;;;;5066503;28;20428;-68
2021/06/14 02:23:45;;;;;;;4.73;3.93;;;14.90;99.90;;;;;;5066373;28;20186;-67
2021/06/14 02:26:11;;;;;;;4.00;3.60;;;14.80;99.90;;;;;;5068965;28;20444;-68
2021/06/14 02:28:37;;;;;;;6.40;5.60;;;14.80;99.90;;;;;;5067208;28;20658;-68
2021/06/14 02:31:04;;;;;;;5.40;4.87;;;14.80;99.90;;;;;;5066837;28;20647;-69
2021/06/14 02:33:30;;;;;;;4.07;3.67;;;14.80;99.90;;;;;;5057518;28;20428;-67
2021/06/14 02:35:56;;;;;;;5.90;3.73;;;14.70;99.90;;;;;;5068567;28;20464;-67
2021/06/14 02:38:24;;;;;;;5.20;3.90;;;14.80;99.90;;;;;;5051122;28;20186;-69
2021/06/14 02:40:50;;;;;;;4.50;4.10;;;14.70;99.90;;;;;;5067230;28;20442;-68
2021/06/14 02:43:16;;;;;;;4.43;4.03;;;14.70;99.90;;;;;;5067475;28;20514;-69
2021/06/14 02:45:43;;;;;;;5.50;4.00;;;14.70;99.90;;;;;;5060370;28;20894;-67
2021/06/14 02:48:09;;;;;;;4.43;4.00;;;14.60;99.90;;;;;;5068767;28;20188;-69
2021/06/14 02:50:36;;;;;;;5.47;4.00;;;14.60;99.90;;;;;;5058552;28;20440;-70
2021/06/14 02:53:04;;;;;;;4.50;3.80;;;14.60;99.90;;;;;;5066800;28;20456;-68
2021/06/14 02:55:35;;;;;;;4.23;3.90;;;14.60;99.90;;;;;;5059047;28;20459;-67
2021/06/14 02:58:02;;;;;;;4.63;4.23;;;14.50;99.90;;;;;;5069134;28;20803;-68
2021/06/14 03:00:31;;;;;;;7.90;4.30;;;14.60;99.90;;;;;;5068002;28;20483;-69
2021/06/14 03:03:03;;;;;;;5.33;4.80;;;14.50;99.90;;;;;;5070925;28;20428;-69
2021/06/14 03:05:30;;;;;;;4.20;3.53;;;14.50;99.90;;;;;;5064222;28;20976;-69
2021/06/14 03:08:00;;;;;;;7.10;4.60;;;14.50;99.90;;;;;;5060098;28;21011;-69
2021/06/14 03:10:29;;;;;;;5.07;4.63;;;14.50;99.90;;;;;;5066782;28;20892;-69
2021/06/14 03:12:56;;;;;;;5.67;3.80;;;14.40;99.90;;;;;;5065276;28;20431;-71
2021/06/14 03:15:23;;;;;;;4.70;3.70;;;14.40;99.90;;;;;;5053377;28;20556;-68
2021/06/14 03:17:51;;;;;;;6.00;4.20;;;14.30;99.90;;;;;;5058082;28;20499;-70
2021/06/14 03:20:19;;;;;;;5.70;4.33;;;14.30;99.90;;;;;;5061539;28;21160;-68
2021/06/14 03:22:45;;;;;;;8.70;5.37;;;14.30;99.90;;;;;;5065786;28;20772;-69
2021/06/14 03:25:11;;;;;;;9.80;7.60;;;14.30;99.90;;;;;;5062731;28;20475;-68
2021/06/14 03:27:37;;;;;;;15.33;9.70;;;14.20;99.90;;;;;;5060411;28;20189;-67
2021/06/14 03:30:04;;;;;;;10.93;9.10;;;14.20;99.90;;;;;;5065418;28;20424;-68
2021/06/14 03:32:32;;;;;;;11.83;10.60;;;14.20;99.90;;;;;;5066906;28;20435;-68
2021/06/14 03:34:58;;;;;;;11.37;10.00;;;14.10;99.90;;;;;;5061291;28;20506;-70
2021/06/14 03:37:25;;;;;;;13.40;10.80;;;14.10;99.90;;;;;;5054171;28;20440;-68
2021/06/14 03:39:51;;;;;;;15.00;11.30;;;14.10;99.90;;;;;;5065037;28;20459;-67
2021/06/14 03:42:18;;;;;;;16.20;11.30;;;14.10;99.90;;;;;;5066573;28;20438;-68
2021/06/14 03:44:44;;;;;;;14.33;11.30;;;14.10;99.90;;;;;;5063538;28;20297;-70
2021/06/14 03:47:10;;;;;;;14.47;10.77;;;14.10;99.90;;;;;;5057622;28;20527;-69
2021/06/14 03:49:36;;;;;;;9.40;8.00;;;14.10;99.90;;;;;;5062156;28;20531;-68
2021/06/14 03:52:01;;;;;;;10.10;6.87;;;14.10;99.90;;;;;;5067644;28;20184;-68
2021/06/14 03:54:27;;;;;;;8.27;6.70;;;14.10;99.90;;;;;;5058934;28;20531;-68
2021/06/14 03:56:52;;;;;;;7.37;6.37;;;14.10;99.90;;;;;;5063499;28;20189;-68
2021/06/14 03:59:18;;;;;;;5.90;5.30;;;14.20;99.90;;;;;;5058697;28;20296;-67
2021/06/14 04:01:44;;;;;;;6.63;5.93;;;14.20;99.90;;;;;;5056228;28;20594;-68
2021/06/14 04:06:54;;;;;;;5.43;4.10;;;14.20;99.90;;;;;;5066852;28;20188;-69
2021/06/14 04:09:19;;;;;;;5.13;4.63;;;14.20;99.90;;;;;;5066617;28;20555;-69
2021/06/14 04:11:45;;;;;;;4.30;3.90;;;14.20;99.90;;;;;;5067338;28;20186;-68
2021/06/14 04:14:10;;;;;;;4.30;3.90;;;14.20;99.90;;;;;;5059810;28;20190;-68
2021/06/14 04:16:36;;;;;;;5.00;4.23;;;14.20;99.90;;;;;;5059973;28;20228;-69
2021/06/14 04:19:02;;;;;;;4.67;4.27;;;14.30;99.90;;;;;;5061704;28;20666;-69
2021/06/14 04:21:27;;;;;;;5.40;4.50;;;14.30;99.90;;;;;;5060594;28;20182;-70
2021/06/14 04:23:53;;;;;;;4.80;4.40;;;14.30;99.90;;;;;;5065991;28;20194;-68
2021/06/14 04:26:19;;;;;;;6.07;4.40;;;14.40;99.90;;;;;;5092177;22;20295;-70
2021/06/14 04:28:44;;;;;;;5.07;4.57;;;14.50;99.90;;;;;;5050054;28;20191;-73
2021/06/14 04:31:10;;;;;;;5.63;4.40;;;14.60;99.90;;;;;;5051187;28;20192;-70
2021/06/14 04:33:35;;;;;;;7.83;7.13;;;14.60;99.90;;;;;;5037291;28;20654;-71
2021/06/14 04:36:02;;;;;;;5.03;4.43;;;14.70;99.90;;;;;;5029654;28;20679;-70
2021/06/14 04:38:28;;;;;;;7.23;5.27;;;14.70;99.90;;;;;;5032242;28;20194;-70
2021/06/14 04:40:54;;;;;;;5.53;4.37;;;14.80;99.90;;;;;;5040604;28;20434;-69
2021/06/14 04:43:19;;;;;;;5.80;4.63;;;14.80;99.90;;;;;;5024551;28;20489;-70
2021/06/14 04:45:45;;;;;;;8.20;4.97;;;14.80;99.90;;;;;;5021403;28;20227;-70
2021/06/14 04:48:11;;;;;;;12.13;5.10;;;14.90;99.90;;;;;;5021931;28;20187;-69
2021/06/14 04:50:36;;;;;;;5.37;4.47;;;15.00;99.90;;;;;;5025100;28;20190;-69
2021/06/14 04:53:02;;;;;;;5.63;4.37;;;15.10;99.90;;;;;;5022738;28;20278;-70
2021/06/14 04:55:27;;;;;;;7.10;3.87;;;15.10;99.90;;;;;;5027027;28;20213;-68
2021/06/14 04:57:53;;;;;;;4.83;4.43;;;15.20;99.90;;;;;;5013515;28;20753;-69
2021/06/14 05:00:20;;;;;;;6.30;4.77;;;15.30;99.90;;;;;;5022623;28;20250;-70
2021/06/14 05:02:46;;;;;;;6.67;4.33;;;15.40;99.90;;;;;;5022561;28;20584;-69
2021/06/14 05:05:11;;;;;;;4.40;4.00;;;15.40;99.90;;;;;;5024157;28;20450;-67
2021/06/14 05:07:37;;;;;;;4.50;4.10;;;15.50;99.90;;;;;;5019511;28;20191;-71
2021/06/14 05:10:03;;;;;;;5.20;4.70;;;15.50;99.90;;;;;;5023734;28;20191;-72
2021/06/14 05:12:29;;;;;;;6.67;4.43;;;15.60;99.90;;;;;;5014646;28;20231;-74
2021/06/14 05:14:55;;;;;;;4.73;4.10;;;15.70;99.90;;;;;;5019498;28;20476;-74
2021/06/14 05:17:20;;;;;;;5.70;5.00;;;15.80;99.90;;;;;;5022916;28;20201;-72
2021/06/14 05:19:46;;;;;;;6.17;4.20;;;15.90;99.90;;;;;;5024771;28;20206;-71
2021/06/14 05:22:12;;;;;;;4.93;4.50;;;16.00;99.90;;;;;;5018810;28;20602;-73
2021/06/14 05:24:38;;;;;;;7.50;4.63;;;16.10;99.90;;;;;;5026358;28;20429;-73
2021/06/14 05:27:04;;;;;;;5.20;3.90;;;16.20;99.90;;;;;;5025345;28;20880;-74
2021/06/14 05:29:30;;;;;;;5.97;5.00;;;16.30;99.90;;;;;;5020784;28;20187;-71
2021/06/14 05:31:57;;;;;;;6.63;4.20;;;16.40;99.90;;;;;;5017499;28;20551;-73
2021/06/14 05:34:23;;;;;;;4.90;4.20;;;16.50;99.90;;;;;;5024441;28;20187;-70
2021/06/14 05:36:48;;;;;;;4.17;3.87;;;16.60;99.90;;;;;;5020728;28;20446;-73
2021/06/14 05:39:14;;;;;;;4.67;4.23;;;16.70;99.90;;;;;;5025405;28;20370;-73
2021/06/14 05:41:40;;;;;;;4.07;3.70;;;16.80;99.90;;;;;;5020918;28;20339;-73
2021/06/14 05:44:05;;;;;;;5.33;4.40;;;16.90;99.90;;;;;;5024821;28;20256;-74
2021/06/14 05:46:31;;;;;;;5.20;4.20;;;17.00;99.90;;;;;;5020369;28;20211;-73
2021/06/14 05:48:57;;;;;;;7.53;5.20;;;17.20;99.90;;;;;;5022241;28;20735;-74
2021/06/14 05:51:22;;;;;;;5.20;4.70;;;17.20;99.90;;;;;;5022464;28;20233;-72
2021/06/14 05:53:48;;;;;;;6.20;3.60;;;17.40;99.90;;;;;;5025160;28;20206;-73
2021/06/14 05:56:15;;;;;;;7.00;3.93;;;17.50;99.90;;;;;;5014572;28;20578;-74
2021/06/14 05:58:41;;;;;;;5.30;4.43;;;17.50;99.90;;;;;;5016581;28;20587;-74
2021/06/14 06:01:07;;;;;;;5.67;4.27;;;17.60;99.90;;;;;;5026617;28;20421;-74
2021/06/14 06:03:32;;;;;;;4.40;4.10;;;17.70;99.90;;;;;;5021322;28;20406;-72
2021/06/14 06:05:58;;;;;;;4.43;4.00;;;17.90;99.90;;;;;;5028448;28;20289;-73
2021/06/14 06:08:24;;;;;;;4.23;3.83;;;17.90;99.90;;;;;;5026118;28;20273;-71
2021/06/14 06:10:50;;;;;;;3.90;3.37;;;17.90;99.90;;;;;;5021196;28;20749;-73
2021/06/14 06:13:15;;;;;;;3.50;3.20;;;18.00;99.90;;;;;;5026676;28;20655;-73
2021/06/14 06:15:41;;;;;;;6.53;3.93;;;18.00;99.90;;;;;;5028008;28;20684;-73
2021/06/14 06:18:07;;;;;;;7.63;3.73;;;18.10;99.90;;;;;;5021171;28;20267;-74
2021/06/14 06:20:32;;;;;;;5.10;4.30;;;18.20;99.90;;;;;;5025421;28;20238;-73
2021/06/14 06:22:58;;;;;;;5.00;3.50;;;18.40;99.90;;;;;;5027904;28;20189;-74
2021/06/14 06:25:26;;;;;;;4.33;3.93;;;18.50;99.90;;;;;;5019433;28;20240;-73
2021/06/14 06:27:52;;;;;;;5.40;4.30;;;18.50;99.90;;;;;;5024853;28;20602;-73
2021/06/14 06:30:23;;;;;;;4.83;4.30;;;18.60;99.90;;;;;;5025155;28;20466;-73
2021/06/14 06:32:49;;;;;;;3.90;3.60;;;18.70;99.90;;;;;;5028456;28;20196;-73
2021/06/14 06:35:16;;;;;;;7.23;4.60;;;18.70;99.90;;;;;;5026022;28;20454;-73
2021/06/14 06:37:42;;;;;;;4.67;4.27;;;18.80;99.90;;;;;;5028453;28;20430;-73
2021/06/14 06:40:08;;;;;;;6.10;4.13;;;18.80;99.90;;;;;;5020356;28;20796;-73
2021/06/14 06:42:34;;;;;;;5.57;3.90;;;18.90;99.90;;;;;;5022873;28;20179;-74
2021/06/14 06:45:00;;;;;;;4.47;4.17;;;18.90;99.90;;;;;;5027361;28;20923;-73
2021/06/14 06:47:26;;;;;;;6.93;4.33;;;19.10;99.90;;;;;;5026652;28;20438;-73
2021/06/14 06:49:51;;;;;;;4.50;3.80;;;19.10;99.90;;;;;;5020525;28;20258;-74
2021/06/14 06:52:17;;;;;;;5.80;4.90;;;19.30;99.90;;;;;;5020538;28;20270;-74
2021/06/14 06:54:43;;;;;;;5.40;4.07;;;19.20;99.90;;;;;;5023105;28;20211;-74
2021/06/14 06:57:09;;;;;;;4.43;3.73;;;19.30;99.90;;;;;;5022175;28;20183;-74
2021/06/14 06:59:35;;;;;;;5.30;3.90;;;19.30;99.90;;;;;;5027508;28;20272;-74
2021/06/14 07:02:00;;;;;;;4.13;3.73;;;19.50;99.90;;;;;;5028509;28;20743;-73
2021/06/14 07:04:26;;;;;;;4.50;4.10;;;19.60;99.90;;;;;;5023018;28;20183;-73
2021/06/14 07:06:51;;;;;;;5.70;4.30;;;19.60;99.90;;;;;;5021711;28;20212;-74
2021/06/14 07:09:17;;;;;;;3.60;3.30;;;19.70;99.90;;;;;;5024521;28;20183;-73
2021/06/14 07:11:43;;;;;;;5.13;4.47;;;19.70;99.90;;;;;;5027225;28;20206;-74
2021/06/14 07:14:09;;;;;;;4.93;4.20;;;19.70;99.90;;;;;;5028051;28;20245;-74
2021/06/14 07:16:35;;;;;;;4.20;3.90;;;19.70;99.90;;;;;;5027035;28;20227;-75
2021/06/14 07:19:01;;;;;;;6.43;4.47;;;19.80;99.90;;;;;;5023768;28;20947;-73
2021/06/14 07:21:27;;;;;;;4.10;3.70;;;19.90;99.90;;;;;;5022938;28;20435;-74
2021/06/14 07:23:53;;;;;;;4.20;3.80;;;20.00;99.90;;;;;;5016980;28;20425;-74
2021/06/14 07:26:19;;;;;;;6.40;4.50;;;20.00;99.90;;;;;;5020856;28;20461;-74
2021/06/14 07:28:45;;;;;;;4.10;3.70;;;20.20;99.90;;;;;;5022803;28;20922;-75
2021/06/14 07:31:11;;;;;;;4.10;3.60;;;20.20;99.90;;;;;;5027708;28;20580;-75
2021/06/14 07:33:37;;;;;;;4.40;4.00;;;20.20;99.90;;;;;;5028869;28;20318;-74
2021/06/14 07:36:04;;;;;;;4.20;3.90;;;20.30;99.90;;;;;;5031401;28;20199;-75
2021/06/14 07:38:31;;;;;;;5.07;4.47;;;20.40;99.90;;;;;;5029374;28;20448;-73
2021/06/14 07:40:57;;;;;;;4.30;3.90;;;20.40;99.90;;;;;;5024630;28;20457;-74
2021/06/14 07:43:23;;;;;;;8.07;5.13;;;20.50;99.90;;;;;;5025870;28;20438;-74
2021/06/14 07:45:49;;;;;;;4.83;4.13;;;20.60;99.90;;;;;;5029541;28;20438;-74
2021/06/14 07:48:15;;;;;;;4.57;4.17;;;20.60;99.90;;;;;;5027331;28;20236;-75
2021/06/14 07:50:42;;;;;;;4.00;3.70;;;20.60;99.90;;;;;;5026420;28;20429;-74
2021/06/14 07:53:08;;;;;;;5.10;4.03;;;20.80;99.90;;;;;;5026638;28;20210;-74
2021/06/14 07:55:35;;;;;;;4.90;3.80;;;20.80;99.90;;;;;;5024750;28;20490;-74
2021/06/14 07:58:01;;;;;;;6.23;4.23;;;20.90;99.90;;;;;;5024707;28;20194;-74
2021/06/14 08:00:26;;;;;;;7.83;4.80;;;20.90;99.90;;;;;;5025455;28;20465;-73
2021/06/14 08:02:52;;;;;;;7.30;4.57;;;21.00;99.90;;;;;;5023014;28;20426;-74
2021/06/14 08:05:18;;;;;;;4.30;3.90;;;21.00;99.90;;;;;;5025544;28;20199;-75
2021/06/14 08:07:44;;;;;;;4.73;3.73;;;21.10;99.90;;;;;;5022340;28;20274;-74
2021/06/14 08:10:16;;;;;;;5.00;4.47;;;21.10;99.90;;;;;;5023759;28;20517;-74
2021/06/14 08:12:49;;;;;;;4.83;3.70;;;21.10;99.90;;;;;;5042411;28;20186;-74
2021/06/14 08:15:18;;;;;;;5.30;3.47;;;21.10;99.90;;;;;;5021913;28;20464;-74
2021/06/14 08:17:44;;;;;;;4.87;4.03;;;21.20;99.90;;;;;;5019090;28;20430;-75
2021/06/14 08:25:20;;;;;;;5.53;3.73;;;21.30;99.90;;;;;;5020506;28;20501;-74
2021/06/14 08:27:47;;;;;;;3.83;3.50;;;21.50;99.90;;;;;;5025698;28;20457;-74
2021/06/14 08:30:19;;;;;;;4.97;4.03;;;21.60;99.90;;;;;;5023448;28;20188;-79
2021/06/14 08:32:46;;;;;;;4.80;4.37;;;21.70;99.90;;;;;;5024726;28;20426;-78
2021/06/14 08:35:14;;;;;;;4.47;3.93;;;21.80;99.90;;;;;;5020980;28;20462;-80
2021/06/14 08:37:41;;;;;;;4.27;3.70;;;21.80;99.90;;;;;;5014755;28;20430;-78
2021/06/14 08:40:08;;;;;;;4.10;3.70;;;21.90;99.90;;;;;;5022323;28;20469;-78
2021/06/14 08:42:34;;;;;;;3.57;3.30;;;21.90;99.90;;;;;;5021814;28;20489;-80
2021/06/14 08:45:00;;;;;;;4.60;3.80;;;21.90;99.90;;;;;;5028058;28;20429;-77
2021/06/14 08:47:28;;;;;;;3.93;3.53;;;21.90;99.90;;;;;;5014415;28;20711;-77
2021/06/14 08:49:55;;;;;;;4.40;3.70;;;22.10;99.90;;;;;;5021745;28;20956;-79
2021/06/14 08:52:21;;;;;;;5.17;4.10;;;22.10;99.90;;;;;;5027563;28;20446;-78
2021/06/14 08:54:47;;;;;;;5.00;4.27;;;22.10;99.90;;;;;;5028955;28;20434;-78
2021/06/14 08:57:15;;;;;;;3.60;3.30;;;22.20;99.90;;;;;;5030677;28;20422;-78
2021/06/14 08:59:41;;;;;;;5.23;3.50;;;22.20;99.90;;;;;;5021763;28;20467;-79
2021/06/14 09:02:07;;;;;;;3.80;3.50;;;22.20;99.90;;;;;;5025335;28;20941;-78
2021/06/14 09:04:33;;;;;;;5.60;4.17;;;22.30;99.90;;;;;;5025470;28;20430;-79
2021/06/14 09:07:00;;;;;;;3.33;3.03;;;22.20;99.90;;;;;;5022951;28;20213;-78
2021/06/14 09:09:31;;;;;;;3.70;3.30;;;22.30;99.90;;;;;;5023916;28;20434;-78
2021/06/14 09:11:59;;;;;;;4.20;3.80;;;22.30;99.90;;;;;;5026729;28;20439;-78
2021/06/14 09:14:27;;;;;;;3.50;3.30;;;22.40;99.90;;;;;;5023614;28;20418;-78
2021/06/14 09:16:58;;;;;;;4.77;3.53;;;22.40;99.90;;;;;;5019523;28;20970;-78
2021/06/14 09:19:29;;;;;;;4.47;3.20;;;22.50;99.90;;;;;;5024624;28;20487;-78
2021/06/14 09:21:56;;;;;;;5.03;3.23;;;22.50;99.90;;;;;;5027627;28;20969;-77
2021/06/14 09:24:26;;;;;;;3.80;3.37;;;22.50;99.90;;;;;;5026715;28;20460;-78
2021/06/14 09:26:52;;;;;;;3.80;3.40;;;22.70;99.90;;;;;;5022132;28;20481;-78
2021/06/14 09:29:29;;;;;;;3.03;2.77;;;22.80;99.90;;;;;;5024172;28;20433;-78
2021/06/14 09:32:00;;;;;;;3.87;3.10;;;22.90;99.90;;;;;;5023247;28;20880;-81
2021/06/14 09:34:32;;;;;;;4.30;3.13;;;23.00;99.90;;;;;;5019360;28;20442;-78
2021/06/14 09:37:01;;;;;;;4.40;3.40;;;22.90;99.90;;;;;;5027094;28;20842;-78
2021/06/14 09:39:27;;;;;;;3.70;3.40;;;22.90;99.90;;;;;;5024934;28;20469;-75
2021/06/14 09:41:53;;;;;;;3.30;3.00;;;23.00;99.90;;;;;;5028258;28;20430;-76
2021/06/14 09:44:30;;;;;;;3.23;2.97;;;22.90;99.90;;;;;;5030080;28;20525;-76
2021/06/14 09:47:07;;;;;;;3.60;3.13;;;23.00;99.70;;;;;;5023467;28;20544;-76
2021/06/14 09:49:34;;;;;;;3.40;2.90;;;23.00;98.60;;;;;;5027376;28;20418;-76
2021/06/14 09:52:00;;;;;;;3.40;3.00;;;23.10;98.60;;;;;;5034153;28;20425;-76
2021/06/14 09:54:35;;;;;;;3.93;2.70;;;23.10;97.10;;;;;;5052841;28;20414;-75
2021/06/14 09:57:05;;;;;;;8.13;2.93;;;23.00;97.80;;;;;;5053924;28;20468;-77
2021/06/14 09:59:40;;;;;;;2.87;2.57;;;23.00;97.20;;;;;;5039774;28;20466;-76
2021/06/14 10:02:17;;;;;;;4.20;3.17;;;23.10;98.90;;;;;;5029975;28;20441;-78
2021/06/14 10:04:44;;;;;;;4.07;2.90;;;23.20;97.20;;;;;;5027395;28;20953;-76
2021/06/14 10:07:12;;;;;;;3.33;2.97;;;23.20;97.00;;;;;;5033379;28;20437;-78
2021/06/14 10:09:40;;;;;;;3.40;3.10;;;23.30;97.00;;;;;;5023212;28;20541;-78
2021/06/14 10:12:15;;;;;;;2.97;2.77;;;23.40;96.80;;;;;;5029020;28;20532;-78
2021/06/14 10:14:55;;;;;;;4.53;3.20;;;23.60;97.90;;;;;;5027504;28;20422;-76
2021/06/14 10:17:39;;;;;;;5.63;3.17;;;23.70;97.60;;;;;;5030601;28;20588;-79
2021/06/14 10:20:22;;;;;;;3.93;2.63;;;23.90;95.50;;;;;;5023210;28;20480;-79
2021/06/14 10:22:51;;;;;;;3.10;2.80;;;23.70;94.80;;;;;;5017458;28;20449;-77
2021/06/14 10:25:18;;;;;;;3.90;3.07;;;23.80;96.70;;;;;;5022357;28;20496;-79
2021/06/14 10:27:45;;;;;;;4.40;3.33;;;23.80;96.50;;;;;;5031022;28;20426;-79
2021/06/14 10:30:13;;;;;;;5.47;3.40;;;23.90;97.50;;;;;;5045511;28;20464;-78
2021/06/14 10:32:41;;;;;;;3.47;3.17;;;24.10;96.70;;;;;;5028309;28;20448;-77
2021/06/14 10:35:08;;;;;;;3.53;3.20;;;24.00;95.80;;;;;;5028896;28;20445;-79
2021/06/14 10:37:41;;;;;;;4.27;3.20;;;24.10;96.60;;;;;;5026721;28;20942;-77
2021/06/14 10:40:09;;;;;;;4.90;3.00;;;24.20;95.40;;;;;;5017031;28;20969;-77
2021/06/14 10:42:35;;;;;;;4.03;3.50;;;24.10;92.80;;;;;;5027972;28;20467;-76
2021/06/14 10:45:01;;;;;;;3.10;2.90;;;24.10;93.20;;;;;;5029373;28;21911;-77
2021/06/14 10:47:27;;;;;;;4.10;2.90;;;24.10;94.10;;;;;;5024621;28;20447;-78
2021/06/14 10:49:56;;;;;;;3.73;3.30;;;24.00;94.40;;;;;;5028756;28;20195;-78
2021/06/14 10:52:22;;;;;;;3.50;3.20;;;24.10;94.40;;;;;;5028870;28;20418;-79
2021/06/14 10:54:48;;;;;;;3.97;3.57;;;24.20;95.10;;;;;;5026731;28;20435;-79
2021/06/14 10:57:14;;;;;;;4.40;3.60;;;24.10;94.10;;;;;;5027394;28;20469;-79
2021/06/14 10:59:42;;;;;;;3.47;3.17;;;24.30;96.60;;;;;;5028858;28;20462;-79
2021/06/14 11:02:09;;;;;;;4.17;3.80;;;24.30;94.70;;;;;;5028566;28;20639;-78
2021/06/14 11:04:35;;;;;;;4.63;2.90;;;24.40;95.80;;;;;;5026842;28;20856;-78
2021/06/14 11:07:02;;;;;;;4.07;3.30;;;24.50;93.40;;;;;;5025343;28;20850;-79
2021/06/14 11:09:45;;;;;;;4.20;3.33;;;24.60;93.10;;;;;;5034203;28;20438;-79
2021/06/14 11:12:27;;;;;;;4.30;2.93;;;24.50;91.70;;;;;;5036755;28;20526;-77
2021/06/14 11:14:53;;;;;;;3.60;2.83;;;24.70;90.30;;;;;;5034063;28;20461;-78
2021/06/14 11:17:25;;;;;;;3.50;3.20;;;24.70;89.50;;;;;;5033903;28;20937;-78
2021/06/14 11:20:00;;;;;;;3.83;3.30;;;24.80;91.20;;;;;;5026147;28;20492;-78
2021/06/14 11:22:48;;;;;;;3.77;3.20;;;25.00;92.80;;;;;;5028275;28;20441;-78
2021/06/14 11:25:26;;;;;;;4.40;2.90;;;25.00;93.00;;;;;;5022547;28;20466;-78
2021/06/14 11:27:52;;;;;;;3.20;2.90;;;25.20;93.00;;;;;;5021043;28;20972;-79
2021/06/14 11:30:43;;;;;;;3.70;3.40;;;25.30;92.50;;;;;;5027437;28;20956;-79
2021/06/14 11:33:10;;;;;;;3.30;2.97;;;25.30;92.60;;;;;;5026086;28;20851;-78
2021/06/14 11:35:36;;;;;;;3.03;2.83;;;25.30;91.90;;;;;;5023679;28;20959;-77
2021/06/14 11:38:03;;;;;;;2.97;2.67;;;25.40;92.30;;;;;;5033627;28;20460;-79
2021/06/14 11:40:34;;;;;;;3.50;3.20;;;25.50;92.10;;;;;;5029574;28;20302;-79
2021/06/14 11:43:10;;;;;;;3.00;2.80;;;25.60;93.20;;;;;;5030061;28;20444;-80
2021/06/14 11:45:38;;;;;;;3.60;2.90;;;25.70;91.10;;;;;;5036833;28;20842;-78
2021/06/14 11:48:16;;;;;;;3.50;3.20;;;25.80;92.30;;;;;;5027536;28;20756;-79
2021/06/14 11:50:41;;;;;;;5.10;3.07;;;26.10;92.40;;;;;;5029356;28;20437;-80
2021/06/14 11:53:07;;;;;;;3.13;2.87;;;26.30;91.50;;;;;;5029870;28;20552;-78
2021/06/14 11:55:35;;;;;;;2.87;2.67;;;26.50;91.30;;;;;;5032816;28;20211;-78
2021/06/14 11:58:04;;;;;;;4.67;3.20;;;26.70;90.80;;;;;;5026642;28;20590;-79
2021/06/14 12:00:35;;;;;;;6.53;3.30;;;26.60;89.30;;;;;;5028676;28;20473;-78
2021/06/14 12:03:14;;;;;;;4.60;2.80;;;26.80;91.60;;;;;;5028125;28;20480;-78
2021/06/14 12:05:39;;;;;;;4.13;3.53;;;27.10;91.10;;;;;;5024751;28;20437;-78
2021/06/14 12:08:07;;;;;;;3.30;3.00;;;27.70;90.50;;;;;;5024383;28;20449;-78
2021/06/14 12:10:33;;;;;;;3.47;3.17;;;28.50;88.90;;;;;;5033894;28;20188;-78
2021/06/14 12:13:08;;;;;;;3.47;2.97;;;29.20;85.30;;;;;;5032562;28;20607;-78
2021/06/14 12:15:34;;;;;;;3.57;3.27;;;30.30;85.40;;;;;;5032056;28;20232;-80
2021/06/14 12:18:00;;;;;;;3.37;3.07;;;31.30;79.90;;;;;;5016244;28;20528;-79
2021/06/14 12:20:31;;;;;;;3.17;2.97;;;32.40;79.20;;;;;;5025795;28;20633;-77
2021/06/14 12:23:03;;;;;;;2.70;2.50;;;33.00;75.80;;;;;;5032276;28;20200;-78
2021/06/14 12:25:30;;;;;;;3.55;2.90;;;33.00;70.50;;;;;;5034657;28;20222;-79
2021/06/14 12:28:01;;;;;;;2.85;2.65;;;32.50;71.20;;;;;;5042454;28;20178;-78
2021/06/14 12:30:27;;;;;;;3.08;2.55;;;33.10;73.80;;;;;;5023522;28;20187;-78
2021/06/14 12:32:56;;;;;;;3.85;2.67;;;33.30;67.90;;;;;;5030962;28;20190;-77
2021/06/14 12:35:23;;;;;;;3.90;2.97;;;34.10;70.20;;;;;;5027324;28;20706;-79
2021/06/14 12:37:50;;;;;;;4.10;2.60;;;34.70;63.50;;;;;;5025083;28;20190;-78
2021/06/14 12:40:19;;;;;;;3.00;2.80;;;35.00;64.40;;;;;;5024835;28;20682;-79
2021/06/14 12:43:00;;;;;;;3.25;2.95;;;35.60;62.40;;;;;;5022196;28;20200;-79
2021/06/14 12:45:27;;;;;;;2.90;2.60;;;35.80;62.40;;;;;;5019047;28;20213;-78
2021/06/14 12:47:55;;;;;;;4.38;3.00;;;35.90;58.90;;;;;;5026509;28;20667;-77
2021/06/14 12:50:42;;;;;;;3.90;2.67;;;35.60;61.90;;;;;;5016414;28;20182;-79
2021/06/14 12:53:08;;;;;;;2.65;2.45;;;35.70;58.40;;;;;;5022694;28;20179;-79
2021/06/14 12:55:38;;;;;;;3.72;2.72;;;35.50;59.50;;;;;;5017374;28;20206;-79
2021/06/14 12:58:13;;;;;;;3.28;2.92;;;36.10;58.70;;;;;;5026166;28;20193;-80